Time;durP1;ratioP1;P1;durP2;ratioP2;P2;SDS_P1;SDS_P2;PMS_P1;PMS_P2;Temp;Humidity;BMP_temperature;BMP_pressure;BME280_temperature;BME280_humidity;BME280_pressure;Samples;Min_cycle;Max_cycle;Signal;HPM_P1;HPM_P2
2023/04/11 00:02:16;;;;;;;36.42;17.10;;;;;;;9.23;60.24;99899.94;7347006;19;20033;-71
2023/04/11 00:04:41;;;;;;;31.65;17.65;;;;;;;9.24;59.81;99898.97;7345713;19;20022;-70
2023/04/11 00:07:06;;;;;;;33.78;18.55;;;;;;;9.21;60.11;99891.19;7345673;19;20026;-71
2023/04/11 00:09:31;;;;;;;29.35;18.27;;;;;;;9.19;60.14;99896.59;7343259;19;20469;-71
2023/04/11 00:11:56;;;;;;;36.15;18.15;;;;;;;9.22;60.31;99893.75;7349771;19;20338;-75
2023/04/11 00:14:21;;;;;;;39.67;18.88;;;;;;;9.26;60.18;99897.91;7345470;19;20408;-71
2023/04/11 00:16:48;;;;;;;36.72;18.75;;;;;;;9.29;60.68;99900.41;7348240;19;20365;-71
2023/04/11 00:19:14;;;;;;;30.75;16.85;;;;;;;9.32;60.24;99902.00;7348816;19;20112;-70
2023/04/11 00:21:38;;;;;;;27.42;17.88;;;;;;;9.33;59.91;99895.75;7346890;19;20015;-71
2023/04/11 00:24:03;;;;;;;33.58;17.95;;;;;;;9.32;59.68;99900.22;7341953;19;20014;-68
2023/04/11 00:26:28;;;;;;;42.40;19.20;;;;;;;9.29;59.75;99900.41;7344622;19;20044;-69
2023/04/11 00:28:53;;;;;;;33.75;17.88;;;;;;;9.29;59.91;99899.53;7347787;19;20014;-72
2023/04/11 00:31:17;;;;;;;43.00;20.17;;;;;;;9.31;60.07;99889.66;7347669;19;20034;-67
2023/04/11 00:33:42;;;;;;;38.22;18.27;;;;;;;9.28;59.99;99890.69;7347018;19;20015;-69
2023/04/11 00:36:07;;;;;;;33.60;18.67;;;;;;;9.30;60.78;99886.16;7350616;19;20006;-69
2023/04/11 00:38:32;;;;;;;40.55;18.45;;;;;;;9.31;61.62;99887.84;7346956;19;20022;-69
2023/04/11 00:40:56;;;;;;;30.75;19.30;;;;;;;9.33;62.00;99885.97;7346411;19;19999;-70
2023/04/11 00:43:21;;;;;;;30.70;18.08;;;;;;;9.34;61.91;99894.81;7344129;19;20466;-70
2023/04/11 00:45:46;;;;;;;26.65;16.50;;;;;;;9.35;61.06;99893.84;7345011;19;20055;-68
2023/04/11 00:48:11;;;;;;;38.22;18.63;;;;;;;9.34;60.81;99887.69;7342572;19;20038;-66
2023/04/11 00:50:41;;;;;;;40.70;19.50;;;;;;;9.39;60.73;99893.53;7340959;19;20018;-69
2023/04/11 00:53:07;;;;;;;31.60;17.73;;;;;;;9.37;61.44;99892.78;7341881;19;20477;-67
2023/04/11 00:55:32;;;;;;;33.33;18.27;;;;;;;9.45;60.52;99893.19;7342744;19;20018;-67
2023/04/11 00:57:56;;;;;;;35.97;18.00;;;;;;;9.45;60.11;99894.97;7342237;19;20027;-67
2023/04/11 01:00:22;;;;;;;31.70;17.20;;;;;;;9.43;60.75;99886.25;7343473;19;20027;-66
2023/04/11 01:02:47;;;;;;;37.72;17.85;;;;;;;9.48;60.75;99888.63;7344811;19;20493;-66
2023/04/11 01:05:13;;;;;;;44.90;19.52;;;;;;;9.44;59.75;99883.47;7343626;19;20569;-68
2023/04/11 01:07:40;;;;;;;35.53;18.27;;;;;;;9.46;60.17;99891.38;7344836;19;20024;-68
2023/04/11 01:10:07;;;;;;;35.67;18.30;;;;;;;9.42;60.17;99893.38;7343802;19;20033;-62
2023/04/11 01:12:32;;;;;;;37.28;18.10;;;;;;;9.39;59.89;99890.03;7342925;19;20014;-71
2023/04/11 01:14:58;;;;;;;36.28;20.10;;;;;;;9.39;60.23;99898.00;7341856;19;20473;-71
2023/04/11 01:17:24;;;;;;;39.97;19.13;;;;;;;9.36;60.02;99887.59;7342609;19;20038;-71
2023/04/11 01:19:49;;;;;;;40.08;20.15;;;;;;;9.39;60.52;99898.00;7340942;19;20026;-71
2023/04/11 01:22:16;;;;;;;45.70;20.23;;;;;;;9.40;60.72;99905.03;7342466;19;20015;-71
2023/04/11 01:24:43;;;;;;;45.17;20.60;;;;;;;9.35;60.96;99900.03;7345017;19;20470;-71
2023/04/11 01:27:09;;;;;;;42.58;22.20;;;;;;;9.29;61.53;99915.50;7343817;19;20564;-63
2023/04/11 01:29:33;;;;;;;52.58;21.95;;;;;;;9.27;61.93;99910.28;7349143;19;20014;-64
2023/04/11 01:31:58;;;;;;;46.90;22.85;;;;;;;9.21;62.59;99908.00;7350190;19;20018;-66
2023/04/11 01:34:27;;;;;;;41.15;22.60;;;;;;;9.19;62.54;99904.56;7348657;19;20026;-64
2023/04/11 01:36:51;;;;;;;41.20;21.67;;;;;;;9.18;62.31;99904.66;7341838;19;20099;-63
2023/04/11 01:39:16;;;;;;;41.85;23.58;;;;;;;9.16;62.80;99907.41;7342695;19;20031;-64
2023/04/11 01:41:42;;;;;;;42.80;21.70;;;;;;;9.12;63.43;99905.06;7343347;19;20020;-67
2023/04/11 01:44:06;;;;;;;42.92;21.23;;;;;;;9.13;63.53;99915.59;7344445;19;20015;-64
2023/04/11 01:46:32;;;;;;;42.05;23.27;;;;;;;9.08;62.99;99907.91;7342815;19;20023;-63
2023/04/11 01:48:58;;;;;;;44.63;23.58;;;;;;;9.07;63.58;99915.97;7345051;19;20090;-63
2023/04/11 01:51:23;;;;;;;30.63;20.42;;;;;;;9.00;64.33;99912.84;7343217;19;20040;-63
2023/04/11 01:53:48;;;;;;;35.67;22.02;;;;;;;8.92;65.04;99906.25;7343279;19;20007;-67
2023/04/11 01:56:13;;;;;;;37.88;20.88;;;;;;;8.80;66.29;99907.00;7341780;19;20041;-68
2023/04/11 01:58:38;;;;;;;31.98;20.38;;;;;;;8.78;66.47;99911.56;7343258;19;20012;-68
2023/04/11 02:01:03;;;;;;;38.78;20.20;;;;;;;8.69;67.07;99910.31;7343247;19;20086;-66
2023/04/11 02:03:27;;;;;;;29.30;18.95;;;;;;;8.64;67.46;99907.06;7342840;19;20006;-65
2023/04/11 02:05:52;;;;;;;32.53;20.63;;;;;;;8.59;68.54;99898.50;7341262;19;20031;-66
2023/04/11 02:08:17;;;;;;;31.73;20.63;;;;;;;8.49;69.37;99914.13;7345432;19;20010;-67
2023/04/11 02:10:41;;;;;;;32.08;19.30;;;;;;;8.42;70.40;99902.16;7338878;19;20439;-66
2023/04/11 02:13:06;;;;;;;48.85;20.92;;;;;;;8.36;70.75;99900.69;7344220;19;20038;-74
2023/04/11 02:15:31;;;;;;;32.80;21.67;;;;;;;8.33;71.64;99892.94;7346799;19;20017;-72
2023/04/11 02:17:56;;;;;;;42.22;21.33;;;;;;;8.27;72.47;99887.94;7346967;19;20033;-76
2023/04/11 02:20:22;;;;;;;35.30;21.38;;;;;;;8.22;73.20;99890.00;7341753;19;20042;-76
2023/04/11 02:22:46;;;;;;;28.30;18.30;;;;;;;8.08;72.85;99879.31;7347968;19;20182;-71
2023/04/11 02:25:13;;;;;;;33.72;19.77;;;;;;;8.06;73.29;99880.34;7355757;19;20015;-74
2023/04/11 02:27:38;;;;;;;43.63;21.08;;;;;;;8.00;73.88;99886.88;7360497;19;20050;-78
2023/04/11 02:30:04;;;;;;;33.35;19.67;;;;;;;7.99;74.40;99893.13;7359274;19;20025;-80
2023/04/11 02:32:29;;;;;;;39.22;20.33;;;;;;;7.95;74.88;99889.78;7353846;19;20069;-73
2023/04/11 02:34:54;;;;;;;29.42;19.92;;;;;;;7.94;75.04;99889.88;7351455;19;20018;-70
2023/04/11 02:37:20;;;;;;;36.22;19.83;;;;;;;7.90;75.56;99883.88;7339293;19;20018;-69
2023/04/11 02:39:45;;;;;;;44.60;22.58;;;;;;;7.88;75.66;99880.47;7344981;19;20018;-72
2023/04/11 02:42:12;;;;;;;30.83;19.33;;;;;;;7.87;76.23;99884.06;7342825;19;20024;-71
2023/04/11 02:44:36;;;;;;;31.65;18.98;;;;;;;7.84;76.37;99870.94;7338688;19;20530;-68
2023/04/11 02:47:01;;;;;;;29.52;18.95;;;;;;;7.82;76.52;99871.97;7339999;19;20019;-69
2023/04/11 02:49:26;;;;;;;30.20;19.20;;;;;;;7.81;76.75;99876.44;7343355;19;20038;-71
2023/04/11 02:51:51;;;;;;;36.38;21.23;;;;;;;7.78;76.71;99876.63;7340210;19;20051;-69
2023/04/11 02:54:16;;;;;;;28.67;18.98;;;;;;;7.77;76.41;99882.00;7339594;19;20014;-66
2023/04/11 02:56:42;;;;;;;32.10;19.95;;;;;;;7.71;76.79;99882.34;7338993;19;20022;-66
2023/04/11 02:59:06;;;;;;;36.55;20.88;;;;;;;7.73;77.14;99881.31;7340205;19;20022;-68
2023/04/11 03:01:32;;;;;;;31.13;19.00;;;;;;;7.75;77.53;99883.88;7338248;19;20014;-68
2023/04/11 03:03:57;;;;;;;30.73;21.55;;;;;;;7.82;77.50;99878.13;7338122;19;20015;-68
2023/04/11 03:06:28;;;;;;;34.33;19.30;;;;;;;7.87;77.70;99877.88;7342114;19;20028;-70
2023/04/11 03:08:56;;;;;;;30.85;19.30;;;;;;;7.92;77.74;99870.50;7338224;19;20081;-66
2023/04/11 03:11:21;;;;;;;34.30;18.45;;;;;;;7.96;77.30;99878.22;7338756;19;20031;-73
2023/04/11 03:13:46;;;;;;;31.65;18.27;;;;;;;7.99;76.96;99870.09;7338756;19;20385;-72
2023/04/11 03:16:12;;;;;;;34.03;19.25;;;;;;;8.04;76.70;99872.47;7341687;19;20018;-72
2023/04/11 03:18:37;;;;;;;27.85;18.30;;;;;;;8.05;76.53;99878.63;7340779;19;20034;-73
2023/04/11 03:21:09;;;;;;;27.88;17.50;;;;;;;8.09;76.35;99878.38;7340763;19;20435;-73
2023/04/11 03:23:37;;;;;;;26.88;16.73;;;;;;;8.17;76.03;99884.09;7341194;19;20021;-73
2023/04/11 03:26:04;;;;;;;28.20;17.00;;;;;;;8.23;75.73;99875.78;7344131;19;20021;-73
2023/04/11 03:28:28;;;;;;;30.75;18.00;;;;;;;8.32;75.67;99874.41;7338205;19;20021;-74
2023/04/11 03:30:53;;;;;;;33.55;19.50;;;;;;;8.40;75.61;99872.16;7337037;19;20010;-75
2023/04/11 03:33:20;;;;;;;29.85;18.45;;;;;;;8.48;75.86;99875.22;7339635;19;20011;-75
2023/04/11 03:35:45;;;;;;;28.60;18.90;;;;;;;8.52;75.87;99870.59;7338625;19;20012;-74
2023/04/11 03:38:10;;;;;;;33.65;20.10;;;;;;;8.59;76.15;99879.88;7343540;19;20496;-76
2023/04/11 03:40:34;;;;;;;33.63;19.05;;;;;;;8.61;76.28;99867.38;7340776;19;20014;-77
2023/04/11 03:43:06;;;;;;;27.25;18.17;;;;;;;8.69;76.33;99857.16;7342568;19;20015;-77
2023/04/11 03:45:34;;;;;;;39.00;19.67;;;;;;;8.76;76.02;99861.16;7344453;19;20006;-75
2023/04/11 03:48:01;;;;;;;28.58;19.00;;;;;;;8.80;75.86;99865.34;7343832;19;20017;-78
2023/04/11 03:50:38;;;;;;;25.75;18.38;;;;;;;8.87;75.73;99879.09;7340828;19;20030;-77
2023/04/11 03:53:09;;;;;;;29.23;17.85;;;;;;;8.90;75.30;99861.16;7355809;19;20019;-79
2023/04/11 03:55:34;;;;;;;25.30;18.25;;;;;;;8.84;75.00;99850.88;7361343;19;20025;-75
2023/04/11 03:58:01;;;;;;;33.88;18.80;;;;;;;8.83;74.62;99856.28;7359630;19;20063;-78
2023/04/11 04:00:29;;;;;;;28.13;19.10;;;;;;;8.80;74.40;99862.69;7360165;19;20327;-76
2023/04/11 04:03:03;;;;;;;25.90;17.23;;;;;;;8.75;74.22;99851.47;7354460;19;20014;-76
2023/04/11 04:05:28;;;;;;;24.60;15.88;;;;;;;8.73;74.00;99853.34;7358328;19;20022;-77
2023/04/11 04:07:53;;;;;;;25.95;17.95;;;;;;;8.69;74.02;99863.28;7362294;19;20027;-75
2023/04/11 04:10:24;;;;;;;25.05;16.58;;;;;;;8.73;73.76;99859.53;7362473;19;20050;-81
2023/04/11 04:12:52;;;;;;;29.08;18.55;;;;;;;8.78;74.04;99867.22;7360924;19;20033;-76
2023/04/11 04:15:20;;;;;;;31.63;18.90;;;;;;;8.83;74.07;99867.78;7358007;19;20046;-77
2023/04/11 04:17:47;;;;;;;26.25;18.20;;;;;;;8.89;74.16;99870.09;7350061;19;20037;-75
2023/04/11 04:20:18;;;;;;;28.80;19.70;;;;;;;8.95;74.46;99867.03;7344233;19;20022;-73
2023/04/11 04:22:48;;;;;;;26.80;17.90;;;;;;;9.01;74.08;99863.16;7344867;19;20026;-73
2023/04/11 04:25:18;;;;;;;26.85;17.92;;;;;;;9.06;73.58;99858.41;7344635;19;20014;-74
2023/04/11 04:27:46;;;;;;;34.63;17.50;;;;;;;9.07;72.37;99863.63;7344861;19;20017;-75
2023/04/11 04:30:15;;;;;;;26.42;15.98;;;;;;;9.03;72.39;99867.41;7348113;19;20530;-75
2023/04/11 04:32:57;;;;;;;20.10;15.23;;;;;;;9.09;71.06;99876.84;7345154;19;20026;-76
2023/04/11 04:35:22;;;;;;;24.20;15.95;;;;;;;9.04;71.55;99871.78;7345501;19;20151;-76
2023/04/11 04:37:48;;;;;;;23.60;15.90;;;;;;;9.09;71.42;99866.19;7346498;19;20086;-74
2023/04/11 04:40:40;;;;;;;25.20;17.10;;;;;;;9.28;71.53;99861.44;7349145;19;20018;-75
2023/04/11 04:43:10;;;;;;;25.35;15.93;;;;;;;9.40;71.61;99854.50;7350478;19;20014;-75
2023/04/11 04:45:55;;;;;;;23.73;16.83;;;;;;;9.70;71.54;99852.56;7344494;19;20010;-74
2023/04/11 04:48:24;;;;;;;21.98;15.60;;;;;;;10.17;70.71;99860.06;7347036;19;20014;-79
2023/04/11 04:50:50;;;;;;;22.70;15.77;;;;;;;10.67;69.42;99847.00;7345876;19;20415;-79
2023/04/11 04:53:16;;;;;;;26.80;15.50;;;;;;;11.21;67.58;99851.16;7348211;19;20311;-79
2023/04/11 04:55:46;;;;;;;20.60;14.85;;;;;;;11.44;65.82;99846.84;7354546;19;20021;-79
2023/04/11 04:58:14;;;;;;;22.23;14.23;;;;;;;11.57;64.36;99847.66;7349597;19;20011;-78
2023/04/11 05:00:39;;;;;;;21.10;13.88;;;;;;;11.69;63.80;99853.09;7345848;19;20410;-79
2023/04/11 05:03:10;;;;;;;34.17;16.25;;;;;;;11.74;64.11;99849.09;7347378;19;20014;-78
2023/04/11 05:05:35;;;;;;;21.73;14.27;;;;;;;11.94;63.48;99848.56;7350192;19;20011;-79
2023/04/11 05:08:01;;;;;;;25.15;17.50;;;;;;;12.36;62.80;99843.63;7348270;19;20099;-79
2023/04/11 05:10:27;;;;;;;17.33;13.80;;;;;;;12.85;60.34;99837.19;7344812;19;20330;-78
2023/04/11 05:12:54;;;;;;;25.70;15.93;;;;;;;13.28;59.00;99835.56;7346486;19;20002;-79
2023/04/11 05:15:21;;;;;;;19.70;14.32;;;;;;;13.77;57.61;99834.25;7346150;19;20593;-78
2023/04/11 05:17:46;;;;;;;20.02;14.38;;;;;;;14.04;55.73;99825.78;7346365;19;20033;-80
2023/04/11 05:22:47;;;;;;;17.58;13.95;;;;;;;14.25;54.24;99815.97;7346329;19;20509;-78
2023/04/11 05:25:13;;;;;;;20.27;15.63;;;;;;;14.49;53.81;99818.44;7346265;19;20350;-74
2023/04/11 05:27:40;;;;;;;20.05;14.30;;;;;;;14.76;53.32;99816.09;7346185;19;20350;-80
2023/04/11 05:30:06;;;;;;;19.95;15.25;;;;;;;15.06;52.58;99811.72;7347618;19;20010;-79
2023/04/11 05:32:34;;;;;;;21.02;15.02;;;;;;;15.06;51.93;99820.63;7346755;19;20469;-78
2023/04/11 05:34:59;;;;;;;24.40;15.52;;;;;;;15.00;52.37;99817.63;7345907;19;20465;-79
2023/04/11 05:37:32;;;;;;;19.60;15.00;;;;;;;14.81;52.43;99811.16;7349734;19;20025;-79
2023/04/11 05:39:57;;;;;;;19.70;14.20;;;;;;;14.67;52.53;99816.84;7350297;19;20015;-79
2023/04/11 05:42:22;;;;;;;22.98;15.27;;;;;;;14.58;52.79;99820.34;7348562;19;20026;-79
2023/04/11 05:44:50;;;;;;;22.88;14.80;;;;;;;14.75;52.86;99809.03;7349642;19;20442;-78
2023/04/11 05:47:15;;;;;;;23.75;15.32;;;;;;;15.20;52.01;99816.75;7346529;19;20010;-78
2023/04/11 05:49:39;;;;;;;24.73;15.40;;;;;;;15.47;50.60;99813.44;7350932;19;20007;-79
2023/04/11 05:52:07;;;;;;;18.52;13.80;;;;;;;16.17;48.89;99807.94;7354183;19;20025;-78
2023/04/11 05:54:34;;;;;;;19.77;13.13;;;;;;;17.00;46.60;99803.75;7357465;19;20388;-77
2023/04/11 05:57:00;;;;;;;16.55;12.25;;;;;;;17.28;44.14;99818.09;7359564;19;20014;-80
2023/04/11 05:59:27;;;;;;;18.58;13.73;;;;;;;17.33;44.47;99788.88;7357339;19;20006;-78
2023/04/11 06:01:53;;;;;;;19.60;14.27;;;;;;;17.38;44.75;99798.19;7360016;19;20038;-78
2023/04/11 06:04:18;;;;;;;15.82;13.05;;;;;;;17.26;43.78;99795.88;7363173;19;20011;-80
2023/04/11 06:06:43;;;;;;;19.20;13.88;;;;;;;17.19;44.13;99798.28;7354100;19;20448;-78
2023/04/11 06:09:09;;;;;;;23.42;14.50;;;;;;;16.92;44.72;99795.56;7355219;19;20326;-76
2023/04/11 06:11:36;;;;;;;19.27;13.82;;;;;;;17.27;44.38;99786.75;7351737;19;20074;-75
2023/04/11 06:14:00;;;;;;;20.15;14.30;;;;;;;18.04;42.62;99789.06;7344362;19;20010;-77
2023/04/11 06:16:25;;;;;;;17.30;13.40;;;;;;;18.92;40.62;99790.81;7344399;19;20035;-79
2023/04/11 06:18:50;;;;;;;18.30;13.48;;;;;;;19.52;38.30;99794.38;7344299;19;20020;-78
2023/04/11 06:21:15;;;;;;;17.92;12.75;;;;;;;20.20;37.40;99791.47;7343131;19;20025;-77
2023/04/11 06:23:39;;;;;;;18.42;11.73;;;;;;;20.96;37.02;99790.31;7350037;19;20437;-74
2023/04/11 06:26:04;;;;;;;24.60;14.07;;;;;;;22.03;34.73;99778.88;7367033;19;20441;-75
2023/04/11 06:28:33;;;;;;;13.45;10.98;;;;;;;22.51;33.95;99799.41;7359513;19;20022;-74
2023/04/11 06:30:57;;;;;;;15.60;12.50;;;;;;;22.37;33.83;99792.03;7361168;19;20022;-76
2023/04/11 06:33:22;;;;;;;24.45;14.05;;;;;;;21.74;34.10;99793.94;7359049;19;20019;-75
2023/04/11 06:35:47;;;;;;;15.10;12.65;;;;;;;21.10;34.42;99795.03;7350522;19;20795;-76
2023/04/11 06:38:12;;;;;;;16.88;13.18;;;;;;;20.04;35.37;99806.84;7353849;19;20003;-75
2023/04/11 06:40:37;;;;;;;20.70;14.57;;;;;;;18.94;37.41;99801.47;7347477;19;20043;-75
2023/04/11 06:43:02;;;;;;;23.67;15.98;;;;;;;18.48;38.40;99800.75;7342831;19;20018;-74
2023/04/11 06:45:26;;;;;;;19.15;14.18;;;;;;;18.66;38.63;99798.03;7343462;19;20046;-77
2023/04/11 06:47:51;;;;;;;18.83;13.07;;;;;;;19.21;37.89;99798.56;7342037;19;20014;-75
2023/04/11 06:50:16;;;;;;;21.20;14.20;;;;;;;19.79;37.55;99785.13;7339654;19;20025;-76
2023/04/11 06:52:41;;;;;;;21.55;16.20;;;;;;;20.40;36.54;99786.63;7341345;19;20046;-75
2023/04/11 06:55:07;;;;;;;21.60;15.73;;;;;;;22.00;35.95;99782.81;7340459;19;20055;-76
2023/04/11 06:57:32;;;;;;;18.17;14.07;;;;;;;23.50;31.89;99790.94;7341375;19;20006;-78
2023/04/11 06:59:57;;;;;;;25.80;15.13;;;;;;;24.11;31.07;99783.31;7339932;19;20018;-76
2023/04/11 07:02:23;;;;;;;17.40;14.65;;;;;;;25.40;29.89;99784.81;7342285;19;20007;-74
2023/04/11 07:04:48;;;;;;;20.98;14.68;;;;;;;26.10;28.16;99780.94;7346435;19;20010;-76
2023/04/11 07:07:13;;;;;;;20.42;15.82;;;;;;;26.63;27.95;99781.91;7346013;19;20021;-76
2023/04/11 07:09:37;;;;;;;20.67;14.95;;;;;;;26.82;26.80;99766.53;7345234;19;20045;-77
2023/04/11 07:12:03;;;;;;;18.95;15.82;;;;;;;26.45;27.37;99776.19;7351497;19;20011;-76
2023/04/11 07:14:28;;;;;;;24.70;17.27;;;;;;;27.12;27.75;99777.88;7345362;19;20019;-76
2023/04/11 07:16:56;;;;;;;21.55;17.13;;;;;;;27.90;25.00;99772.38;7345531;19;20088;-77
2023/04/11 07:19:21;;;;;;;22.95;15.88;;;;;;;28.27;24.38;99771.56;7353210;19;20010;-76
2023/04/11 07:21:47;;;;;;;17.60;15.80;;;;;;;28.96;24.03;99773.38;7345723;19;20006;-73
2023/04/11 07:24:12;;;;;;;29.90;17.48;;;;;;;27.79;25.03;99771.16;7356044;19;20007;-74
2023/04/11 07:26:37;;;;;;;24.27;16.77;;;;;;;26.15;26.67;99762.03;7360902;19;20038;-76
2023/04/11 07:29:02;;;;;;;25.38;15.82;;;;;;;24.45;27.61;99762.72;7360928;19;20465;-77
2023/04/11 07:31:26;;;;;;;22.85;15.70;;;;;;;23.58;27.20;99761.97;7358795;19;20007;-74
2023/04/11 07:34:10;;;;;;;18.73;15.57;;;;;;;23.59;27.36;99760.94;7357382;19;20112;-76
2023/04/11 07:36:37;;;;;;;19.13;14.40;;;;;;;24.53;27.28;99754.41;7359128;19;20042;-75
2023/04/11 07:39:03;;;;;;;22.65;17.50;;;;;;;26.05;26.55;99756.13;7360590;19;20015;-74
2023/04/11 07:41:27;;;;;;;19.73;15.10;;;;;;;26.94;24.68;99753.94;7357767;19;20006;-74
2023/04/11 07:43:52;;;;;;;20.52;16.60;;;;;;;28.06;23.61;99744.47;7356830;19;20021;-75
2023/04/11 07:46:17;;;;;;;21.13;15.23;;;;;;;28.82;22.89;99745.19;7355204;19;20036;-74
2023/04/11 07:48:42;;;;;;;23.00;16.30;;;;;;;28.92;22.71;99744.69;7354802;19;20018;-75
2023/04/11 07:51:07;;;;;;;19.02;14.75;;;;;;;28.89;21.61;99748.72;7343537;19;20014;-75
2023/04/11 07:53:32;;;;;;;17.40;14.65;;;;;;;29.01;21.41;99739.75;7348789;19;20009;-78
2023/04/11 07:55:56;;;;;;;23.63;15.57;;;;;;;29.21;21.58;99738.47;7349282;19;20066;-79
2023/04/11 07:58:21;;;;;;;17.75;15.07;;;;;;;29.92;21.55;99735.06;7355550;19;20024;-79
2023/04/11 08:00:46;;;;;;;31.02;18.45;;;;;;;30.56;20.51;99736.28;7354126;19;20023;-76
2023/04/11 08:03:11;;;;;;;23.50;16.92;;;;;;;29.70;21.08;99735.78;7351369;19;20013;-74
2023/04/11 08:05:36;;;;;;;28.88;19.20;;;;;;;29.14;20.92;99729.44;7350605;19;20011;-73
2023/04/11 08:08:02;;;;;;;21.88;17.88;;;;;;;27.76;22.36;99728.63;7356076;19;20035;-75
2023/04/11 08:10:27;;;;;;;22.17;17.27;;;;;;;26.92;22.83;99731.41;7348023;19;20002;-74
2023/04/11 08:13:00;;;;;;;21.42;17.75;;;;;;;26.81;23.08;99733.91;7346727;19;20018;-73
2023/04/11 08:15:26;;;;;;;21.52;16.95;;;;;;;27.18;23.03;99727.78;7345385;19;20139;-75
2023/04/11 08:17:54;;;;;;;25.20;17.80;;;;;;;28.01;22.35;99730.56;7344653;19;20014;-73
2023/04/11 08:20:20;;;;;;;23.25;19.10;;;;;;;28.57;21.64;99705.09;7345304;19;20011;-73
2023/04/11 08:22:46;;;;;;;25.45;19.83;;;;;;;28.60;21.71;99718.34;7345124;19;20354;-74
2023/04/11 08:25:12;;;;;;;22.83;18.10;;;;;;;28.59;21.92;99713.94;7343781;19;20022;-73
2023/04/11 08:27:38;;;;;;;20.88;18.38;;;;;;;29.27;21.61;99709.25;7347305;19;20022;-73
2023/04/11 08:30:04;;;;;;;23.50;17.23;;;;;;;30.21;20.57;99705.06;7346107;19;20062;-75
2023/04/11 08:32:30;;;;;;;28.42;18.35;;;;;;;30.91;19.69;99710.69;7346091;19;20014;-76
2023/04/11 08:34:55;;;;;;;22.30;17.25;;;;;;;31.21;19.49;99705.88;7343820;19;20015;-74
2023/04/11 08:37:20;;;;;;;19.55;15.00;;;;;;;31.62;18.99;99701.19;7344742;19;20014;-73
2023/04/11 08:39:45;;;;;;;20.75;16.23;;;;;;;31.73;18.88;99708.63;7343596;19;20019;-75
2023/04/11 08:42:28;;;;;;;18.85;16.23;;;;;;;32.72;18.36;99707.16;7344760;19;20010;-75
2023/04/11 08:45:03;;;;;;;16.55;14.48;;;;;;;32.62;18.51;99695.91;7344403;19;20010;-76
2023/04/11 08:47:29;;;;;;;19.38;14.68;;;;;;;32.41;17.32;99710.44;7348774;19;20034;-76
2023/04/11 08:49:55;;;;;;;17.33;13.40;;;;;;;32.73;17.15;99695.00;7343215;19;20289;-76
2023/04/11 08:52:20;;;;;;;18.27;14.65;;;;;;;33.30;16.88;99703.03;7343885;19;20565;-74
2023/04/11 08:54:46;;;;;;;18.23;15.70;;;;;;;34.12;16.63;99694.59;7345449;19;20017;-75
2023/04/11 08:57:27;;;;;;;19.95;15.60;;;;;;;34.65;16.53;99692.03;7345969;19;20026;-75
2023/04/11 08:59:59;;;;;;;17.05;15.05;;;;;;;34.98;16.60;99696.44;7343453;19;20051;-76
2023/04/11 09:02:24;;;;;;;16.88;15.05;;;;;;;34.23;16.46;99679.75;7344881;19;20011;-76
2023/04/11 09:04:49;;;;;;;22.95;15.35;;;;;;;33.84;16.77;99686.56;7344423;19;20050;-76
2023/04/11 09:07:17;;;;;;;17.10;15.20;;;;;;;33.62;16.52;99680.22;7343916;19;20010;-77
2023/04/11 09:09:42;;;;;;;16.80;14.68;;;;;;;34.14;16.78;99678.56;7346154;19;20015;-78
2023/04/11 09:12:07;;;;;;;20.02;15.38;;;;;;;35.05;16.04;99669.31;7344428;19;20018;-77
2023/04/11 09:14:32;;;;;;;17.92;15.43;;;;;;;35.73;15.58;99672.94;7345596;19;20342;-78
2023/04/11 09:17:05;;;;;;;18.70;15.40;;;;;;;36.43;15.10;99674.19;7351585;19;20370;-76
2023/04/11 09:19:32;;;;;;;17.08;15.38;;;;;;;36.27;15.07;99670.56;7345597;19;20184;-77
2023/04/11 09:22:00;;;;;;;19.85;14.20;;;;;;;36.76;15.10;99651.41;7347207;19;20026;-77
2023/04/11 09:24:26;;;;;;;17.38;15.57;;;;;;;36.68;14.37;99655.53;7348395;19;20019;-74
2023/04/11 09:27:09;;;;;;;17.45;15.23;;;;;;;37.39;14.02;99665.69;7341950;19;20466;-75
2023/04/11 09:29:38;;;;;;;19.33;15.50;;;;;;;35.64;15.11;99656.00;7344177;19;20029;-73
2023/04/11 09:32:04;;;;;;;16.73;15.02;;;;;;;36.47;15.24;99644.75;7341033;19;20010;-73
2023/04/11 09:34:28;;;;;;;16.55;14.82;;;;;;;37.40;14.16;99639.53;7347936;19;20091;-74
2023/04/11 09:36:55;;;;;;;16.67;14.98;;;;;;;37.05;14.00;99644.09;7350006;19;20014;-72
2023/04/11 09:39:20;;;;;;;18.58;15.48;;;;;;;35.82;14.47;99638.03;7347395;19;20007;-73
2023/04/11 09:41:45;;;;;;;18.33;16.42;;;;;;;35.74;15.07;99641.34;7351519;19;20006;-74
2023/04/11 09:44:10;;;;;;;16.02;14.13;;;;;;;36.23;14.29;99645.31;7352156;19;20085;-74
2023/04/11 09:46:34;;;;;;;18.25;14.93;;;;;;;33.51;15.82;99632.25;7346474;19;20037;-75
2023/04/11 09:49:02;;;;;;;16.85;13.80;;;;;;;31.90;16.79;99618.53;7346210;19;20508;-72
2023/04/11 09:51:27;;;;;;;19.48;14.23;;;;;;;32.81;17.09;99616.44;7351141;19;20022;-73
2023/04/11 09:53:54;;;;;;;18.23;13.60;;;;;;;34.27;16.00;99612.84;7348790;19;20015;-74
2023/04/11 09:56:19;;;;;;;15.90;14.20;;;;;;;35.41;15.53;99601.88;7346470;19;20006;-74
2023/04/11 09:58:46;;;;;;;16.17;14.52;;;;;;;35.44;15.15;99615.16;7352326;19;20027;-74
2023/04/11 10:01:10;;;;;;;18.08;14.40;;;;;;;33.17;15.76;99604.75;7347632;19;20682;-74
2023/04/11 10:03:37;;;;;;;17.13;14.35;;;;;;;31.87;17.13;99610.75;7345372;19;20355;-73
2023/04/11 10:06:06;;;;;;;15.90;14.18;;;;;;;32.24;17.11;99596.50;7351078;19;20026;-74
2023/04/11 10:08:33;;;;;;;21.83;13.65;;;;;;;33.63;16.39;99580.41;7347063;19;20021;-73
2023/04/11 10:11:03;;;;;;;15.93;14.23;;;;;;;34.58;15.11;99585.09;7349329;19;20094;-79
2023/04/11 10:13:34;;;;;;;16.48;13.57;;;;;;;33.34;16.34;99582.59;7349781;19;20007;-77
2023/04/11 10:16:12;;;;;;;15.48;13.98;;;;;;;32.09;16.91;99583.25;7348449;19;20019;-76
2023/04/11 10:18:59;;;;;;;15.68;13.43;;;;;;;28.35;18.74;99570.28;7345305;19;20002;-76
2023/04/11 10:21:33;;;;;;;16.25;13.98;;;;;;;25.23;22.09;99570.63;7340607;19;20021;-77
2023/04/11 10:24:19;;;;;;;16.48;12.20;;;;;;;24.37;22.69;99574.84;7350020;19;20497;-73
2023/04/11 10:26:51;;;;;;;15.15;12.38;;;;;;;22.97;24.16;99570.97;7338597;19;20023;-75
2023/04/11 10:29:27;;;;;;;17.52;13.32;;;;;;;22.06;25.54;99567.59;7340723;19;20015;-77
2023/04/11 10:32:14;;;;;;;16.17;13.18;;;;;;;21.92;25.72;99568.38;7340271;19;20021;-76
2023/04/11 10:34:59;;;;;;;17.33;14.70;;;;;;;21.85;26.09;99580.16;7362503;19;20645;-78
2023/04/11 10:37:31;;;;;;;;;;;;;;;22.07;25.14;99579.28;7351058;19;20018;-76
2023/04/11 10:39:57;;;;;;;14.75;12.77;;;;;;;21.47;25.83;99555.69;7365624;19;19917;-75
2023/04/11 10:42:33;;;;;;;12.95;11.35;;;;;;;21.41;26.24;99558.31;7363422;19;20006;-75
2023/04/11 10:45:25;;;;;;;17.95;13.05;;;;;;;21.14;26.58;99551.50;7359418;19;20010;-75
2023/04/11 10:47:56;;;;;;;15.80;12.07;;;;;;;20.92;27.43;99545.03;7372942;19;20003;-76
2023/04/11 10:50:27;;;;;;;16.67;12.05;;;;;;;20.84;27.64;99534.25;7371910;19;20006;-74
2023/04/11 10:52:59;;;;;;;17.42;12.60;;;;;;;20.55;27.07;99535.72;7372267;19;20027;-76
2023/04/11 10:55:26;;;;;;;17.15;12.65;;;;;;;20.07;27.68;99538.59;7368612;19;20015;-77
2023/04/11 10:58:21;;;;;;;17.52;11.65;;;;;;;19.99;28.20;99535.88;7347521;19;20700;-78
2023/04/11 11:00:45;;;;;;;15.60;12.32;;;;;;;19.60;28.54;99528.50;7346272;19;20018;-77
2023/04/11 11:03:15;;;;;;;16.48;12.05;;;;;;;19.69;28.38;99532.88;7349968;19;20010;-77
2023/04/11 11:05:40;;;;;;;17.75;11.15;;;;;;;19.36;27.89;99521.22;7349127;19;20010;-76
2023/04/11 11:08:05;;;;;;;16.27;11.10;;;;;;;19.25;28.92;99516.13;7350292;19;20018;-76
2023/04/11 11:10:40;;;;;;;15.27;11.00;;;;;;;19.26;27.92;99509.72;7348270;19;20011;-75
2023/04/11 11:13:05;;;;;;;16.38;11.20;;;;;;;19.15;28.30;99508.19;7349531;19;20019;-75
2023/04/11 11:15:37;;;;;;;13.10;10.77;;;;;;;19.37;28.97;99509.38;7348094;19;20126;-73
2023/04/11 11:18:03;;;;;;;15.98;10.73;;;;;;;19.37;28.28;99506.69;7348565;19;20021;-75
2023/04/11 11:20:28;;;;;;;15.27;10.32;;;;;;;19.39;27.54;99506.50;7347234;19;20041;-76
2023/04/11 11:23:04;;;;;;;14.60;10.60;;;;;;;19.42;27.22;99496.19;7349259;19;20066;-76
2023/04/11 11:25:29;;;;;;;13.82;10.23;;;;;;;19.18;28.04;99505.16;7350517;19;20351;-75